createdAt,value
2023-03-06T00:01:23.647Z,101604.72
2023-03-06T00:03:56.073Z,101602.72
2023-03-06T00:06:26.406Z,101610.19
2023-03-06T00:08:56.948Z,101602.81
2023-03-06T00:11:28.478Z,101613.56
2023-03-06T00:13:59.962Z,101613.34
2023-03-06T00:16:30.435Z,101607.38
2023-03-06T00:19:01.415Z,101607.06
2023-03-06T00:21:32.346Z,101607.78
2023-03-06T00:24:03.205Z,101619.34
2023-03-06T00:26:34.952Z,101617.28
2023-03-06T00:29:05.372Z,101611.41
2023-03-06T00:31:37.218Z,101620.53
2023-03-06T00:34:08.549Z,101616.53
2023-03-06T00:36:39.836Z,101610.84
2023-03-06T00:39:12.260Z,101624.66
2023-03-06T00:41:44.871Z,101609.56
2023-03-06T00:44:16.598Z,101610.66
2023-03-06T00:46:47.252Z,101614.72
2023-03-06T00:49:18.155Z,101615.09
2023-03-06T00:51:48.730Z,101615.28
2023-03-06T00:54:19.385Z,101612.97
2023-03-06T00:56:50.418Z,101616.19
2023-03-06T00:59:21.194Z,101620.25
2023-03-06T01:01:52.215Z,101621.63
2023-03-06T01:04:22.999Z,101613.91
2023-03-06T01:06:55.528Z,101615.25
2023-03-06T01:09:27.263Z,101614.75
2023-03-06T01:11:57.978Z,101611.13
2023-03-06T01:14:29.498Z,101610.28
2023-03-06T01:17:00.720Z,101613.13
2023-03-06T01:19:32.015Z,101609.66
2023-03-06T01:22:02.614Z,101601.56
2023-03-06T01:24:34.939Z,101597.84
2023-03-06T01:27:05.315Z,101605.47
2023-03-06T01:29:35.804Z,101591.81
2023-03-06T01:32:06.863Z,101597.41
2023-03-06T01:34:37.373Z,101591.50
2023-03-06T01:37:08.209Z,101588.31
2023-03-06T01:39:38.900Z,101590.84
2023-03-06T01:42:09.838Z,101584.97
2023-03-06T01:45:01.021Z,101593.19
2023-03-06T01:47:31.697Z,101589.53
2023-03-06T01:50:04.913Z,101598.94
2023-03-06T01:52:39.544Z,101581.78
2023-03-06T01:55:17.819Z,101583.16
2023-03-06T01:57:58.712Z,101579.28
2023-03-06T02:00:31.486Z,101577.06
2023-03-06T02:03:20.591Z,101578.09
2023-03-06T02:05:51.481Z,101575.72
2023-03-06T02:08:24.402Z,101574.03
2023-03-06T02:11:14.427Z,101571.00
2023-03-06T02:13:45.940Z,101566.75
2023-03-06T02:16:18.575Z,101571.34
2023-03-06T02:18:49.262Z,101555.78
2023-03-06T02:21:30.377Z,101553.56
2023-03-06T02:24:15.842Z,101555.13
2023-03-06T02:26:46.780Z,101547.72
2023-03-06T02:29:29.601Z,101543.66
2023-03-06T02:32:03.539Z,101546.69
2023-03-06T02:34:40.986Z,101537.91
2023-03-06T02:37:12.833Z,101544.31
2023-03-06T02:39:48.421Z,101538.22
2023-03-06T02:42:26.059Z,101526.38
2023-03-06T02:44:59.213Z,101518.28
2023-03-06T02:47:31.990Z,101520.75
2023-03-06T02:50:03.486Z,101511.09
2023-03-06T02:52:34.819Z,101513.41
2023-03-06T02:55:06.059Z,101507.19
2023-03-06T02:57:40.519Z,101502.78
2023-03-06T03:00:15.946Z,101501.53
2023-03-06T03:02:47.860Z,101500.00
2023-03-06T03:05:18.860Z,101496.22
2023-03-06T03:07:54.576Z,101499.44
2023-03-06T03:10:26.801Z,101494.50
2023-03-06T03:12:58.916Z,101492.25
2023-03-06T03:15:30.062Z,101486.47
2023-03-06T03:18:03.832Z,101477.91
2023-03-06T03:20:35.738Z,101480.22
2023-03-06T03:23:06.420Z,101479.34
2023-03-06T03:25:37.369Z,101471.22
2023-03-06T03:28:08.238Z,101467.50
2023-03-06T03:30:42.368Z,101471.56
2023-03-06T03:33:14.169Z,101464.47
2023-03-06T03:35:46.458Z,101452.09
2023-03-06T03:38:18.020Z,101452.63
2023-03-06T03:40:49.277Z,101441.78
2023-03-06T03:43:21.522Z,101433.97
2023-03-06T03:45:54.921Z,101428.38
2023-03-06T03:48:26.942Z,101422.78
2023-03-06T03:51:14.659Z,101417.97
2023-03-06T03:53:48.793Z,101407.50
2023-03-06T03:56:28.311Z,101405.09
2023-03-06T03:59:05.058Z,101396.53
2023-03-06T04:01:42.695Z,101397.91
2023-03-06T04:04:14.411Z,101393.97
2023-03-06T04:06:49.819Z,101381.97
2023-03-06T04:09:22.069Z,101383.72
2023-03-06T04:11:53.660Z,101379.16
2023-03-06T04:14:24.052Z,101375.44
2023-03-06T04:16:55.000Z,101371.97
2023-03-06T04:19:27.693Z,101358.06
2023-03-06T04:22:00.842Z,101363.75
2023-03-06T04:24:33.444Z,101353.31
2023-03-06T04:27:04.891Z,101350.88
2023-03-06T04:29:35.618Z,101339.13
2023-03-06T04:32:06.891Z,101349.75
2023-03-06T04:34:39.267Z,101332.97
2023-03-06T04:37:16.197Z,101332.56
2023-03-06T04:39:47.238Z,101332.19
2023-03-06T04:42:21.518Z,101326.78
2023-03-06T04:44:52.580Z,101328.91
2023-03-06T04:47:24.014Z,101322.94
2023-03-06T04:49:54.676Z,101323.03
2023-03-06T04:52:34.532Z,101314.97
2023-03-06T04:55:09.588Z,101307.78
2023-03-06T04:57:41.774Z,101301.50
2023-03-06T05:00:21.859Z,101305.31
2023-03-06T05:02:53.467Z,101289.09
2023-03-06T05:05:24.429Z,101293.50
2023-03-06T05:07:56.132Z,101285.22
2023-03-06T05:10:26.957Z,101283.41
2023-03-06T05:12:57.642Z,101281.34
2023-03-06T05:15:28.146Z,101273.47
2023-03-06T05:18:00.141Z,101268.31
2023-03-06T05:20:31.411Z,101273.72
2023-03-06T05:23:02.323Z,101258.78
2023-03-06T05:25:33.261Z,101252.97
2023-03-06T05:28:04.105Z,101255.53
2023-03-06T05:30:35.168Z,101247.63
2023-03-06T05:33:06.415Z,101249.94
2023-03-06T05:35:37.145Z,101229.72
2023-03-06T05:38:07.492Z,101236.00
2023-03-06T05:40:42.704Z,101220.13
2023-03-06T05:43:13.688Z,101220.56
2023-03-06T05:45:46.413Z,101206.19
2023-03-06T05:48:17.132Z,101203.94
2023-03-06T05:50:48.586Z,101206.94
2023-03-06T05:53:19.375Z,101196.53
2023-03-06T05:56:00.974Z,101196.78
2023-03-06T05:58:33.050Z,101187.41
2023-03-06T06:01:16.308Z,101183.25
2023-03-06T06:03:48.681Z,101177.00
2023-03-06T06:06:19.968Z,101176.19
2023-03-06T06:08:51.020Z,101166.19
2023-03-06T06:11:22.169Z,101163.47
2023-03-06T06:13:52.988Z,101162.47
2023-03-06T06:16:24.108Z,101161.19
2023-03-06T06:18:57.325Z,101155.16
2023-03-06T06:21:30.892Z,101152.84
2023-03-06T06:24:03.544Z,101148.69
2023-03-06T06:26:34.496Z,101155.16
2023-03-06T06:29:06.779Z,101134.25
2023-03-06T06:31:37.881Z,101136.34
2023-03-06T06:34:09.401Z,101134.88
2023-03-06T06:36:40.899Z,101128.56
2023-03-06T06:39:12.578Z,101128.56
2023-03-06T06:41:59.312Z,101118.53
2023-03-06T06:44:33.061Z,101122.28
2023-03-06T06:49:57.166Z,101133.13
2023-03-06T06:52:28.426Z,101118.69
2023-03-06T06:54:58.876Z,101115.53
2023-03-06T06:57:30.116Z,101108.44
2023-03-06T07:00:00.752Z,101110.47
2023-03-06T07:02:33.144Z,101104.63
2023-03-06T07:05:05.501Z,101096.66
2023-03-06T07:07:39.086Z,101100.81
2023-03-06T07:10:20.016Z,101098.31
2023-03-06T07:12:54.812Z,101096.66
2023-03-06T07:15:28.033Z,101093.75
2023-03-06T07:17:59.091Z,101093.53
2023-03-06T07:20:29.653Z,101094.19
2023-03-06T07:23:00.262Z,101103.53
2023-03-06T07:25:31.004Z,101098.75
2023-03-06T07:28:02.956Z,101094.19
2023-03-06T07:30:34.231Z,101098.38
2023-03-06T07:33:05.128Z,101097.09
2023-03-06T07:35:35.912Z,101098.78
2023-03-06T07:38:07.103Z,101101.72
2023-03-06T07:40:39.955Z,101095.91
2023-03-06T07:43:19.055Z,101096.28
2023-03-06T07:46:02.237Z,101091.69
2023-03-06T07:48:32.776Z,101102.16
2023-03-06T07:51:09.060Z,101104.22
2023-03-06T07:53:39.420Z,101103.00
2023-03-06T07:56:12.051Z,101100.50
2023-03-06T07:58:46.216Z,101112.97
2023-03-06T08:01:22.780Z,101097.94
2023-03-06T08:03:54.061Z,101103.78
2023-03-06T08:06:26.990Z,101111.94
2023-03-06T08:08:58.236Z,101106.69
2023-03-06T08:11:31.069Z,101108.38
2023-03-06T08:14:02.088Z,101107.09
2023-03-06T08:16:32.499Z,101110.44
2023-03-06T08:19:03.571Z,101108.56
2023-03-06T08:21:34.349Z,101112.72
2023-03-06T08:24:06.738Z,101115.81
2023-03-06T08:26:38.189Z,101130.41
2023-03-06T08:29:09.164Z,101116.19
2023-03-06T08:31:42.052Z,101120.97
2023-03-06T08:34:14.994Z,101124.09
2023-03-06T08:36:45.580Z,101131.59
2023-03-06T08:39:16.803Z,101133.22
2023-03-06T08:41:47.222Z,101131.09
2023-03-06T08:44:20.370Z,101136.69
2023-03-06T08:46:50.913Z,101135.25
2023-03-06T08:49:22.597Z,101147.53
2023-03-06T08:51:53.152Z,101153.16
2023-03-06T08:54:23.968Z,101148.31
2023-03-06T08:56:55.198Z,101149.13
2023-03-06T08:59:26.307Z,101155.16
2023-03-06T09:01:57.058Z,101155.56
2023-03-06T09:04:27.838Z,101159.22
2023-03-06T09:07:01.342Z,101152.97
2023-03-06T09:09:32.413Z,101147.97
2023-03-06T09:12:02.987Z,101156.47
2023-03-06T09:14:33.738Z,101159.59
2023-03-06T09:17:05.084Z,101160.72
2023-03-06T09:19:35.870Z,101162.78
2023-03-06T09:22:06.675Z,101169.63
2023-03-06T09:24:37.186Z,101171.31
2023-03-06T09:27:10.025Z,101172.41
2023-03-06T09:29:40.709Z,101170.28
2023-03-06T09:32:13.541Z,101175.44
2023-03-06T09:34:44.250Z,101176.09
2023-03-06T09:37:16.345Z,101176.84
2023-03-06T09:39:47.673Z,101168.69
2023-03-06T09:42:20.848Z,101182.03
2023-03-06T09:45:03.416Z,101194.22
2023-03-06T09:47:50.940Z,101194.22
2023-03-06T09:50:46.631Z,101200.47
2023-03-06T09:53:43.811Z,101204.13
2023-03-06T09:56:21.652Z,101211.63
2023-03-06T09:58:56.874Z,101208.66
2023-03-06T10:01:34.013Z,101207.16
2023-03-06T10:04:32.999Z,101213.13
2023-03-06T10:07:30.755Z,101209.31
2023-03-06T10:10:26.516Z,101224.63
2023-03-06T10:13:44.593Z,101221.28
2023-03-06T10:16:25.119Z,101231.25
2023-03-06T10:18:59.495Z,101232.31
2023-03-06T10:22:14.346Z,101228.97
2023-03-06T10:25:08.792Z,101243.50
2023-03-06T10:27:48.419Z,101241.56
2023-03-06T10:30:41.945Z,101248.75
2023-03-06T10:33:29.739Z,101248.75
2023-03-06T10:36:00.574Z,101247.41
2023-03-06T10:38:33.834Z,101261.28
2023-03-06T10:41:13.631Z,101261.66
2023-03-06T10:44:06.946Z,101261.38
2023-03-06T10:46:45.369Z,101268.56
2023-03-06T10:49:38.814Z,101269.13
2023-03-06T10:52:16.430Z,101275.91
2023-03-06T10:54:49.328Z,101278.78
2023-03-06T10:57:32.029Z,101283.53
2023-03-06T11:00:07.040Z,101282.59
2023-03-06T11:02:41.939Z,101292.09
2023-03-06T11:05:22.196Z,101288.44
2023-03-06T11:08:00.390Z,101291.13
2023-03-06T11:10:32.455Z,101288.09
2023-03-06T11:13:08.607Z,101291.38
2023-03-06T11:15:39.144Z,101305.25
2023-03-06T11:18:12.690Z,101311.81
2023-03-06T11:20:52.159Z,101308.47
2023-03-06T11:23:44.063Z,101315.25
2023-03-06T11:26:28.054Z,101332.91
2023-03-06T11:29:27.564Z,101321.75
2023-03-06T11:32:18.164Z,101323.78
2023-03-06T11:35:06.348Z,101325.66
2023-03-06T11:37:50.427Z,101330.88
2023-03-06T11:40:44.675Z,101332.91
2023-03-06T11:43:20.833Z,101341.03
2023-03-06T11:46:03.040Z,101339.69
2023-03-06T11:48:40.883Z,101342.03
2023-03-06T11:51:26.672Z,101353.19
2023-03-06T11:54:02.923Z,101352.34
2023-03-06T11:56:38.714Z,101350.84
2023-03-06T11:59:31.896Z,101370.78
2023-03-06T12:02:24.183Z,101359.66
2023-03-06T12:04:58.808Z,101356.97
2023-03-06T12:07:58.665Z,101365.69
2023-03-06T12:10:34.678Z,101369.75
2023-03-06T12:13:39.241Z,101373.75
2023-03-06T12:16:25.770Z,101383.88
2023-03-06T12:19:23.148Z,101373.75
2023-03-06T12:22:14.513Z,101377.75
2023-03-06T12:24:57.079Z,101381.78
2023-03-06T12:27:53.637Z,101377.69
2023-03-06T12:30:43.278Z,101395.94
2023-03-06T12:33:34.816Z,101391.41
2023-03-06T12:36:26.895Z,101395.13
2023-03-06T12:38:57.846Z,101402.56
2023-03-06T12:41:52.742Z,101408.78
2023-03-06T12:44:45.576Z,101394.63
2023-03-06T12:47:23.057Z,101401.91
2023-03-06T12:49:57.975Z,101407.47
2023-03-06T12:52:32.280Z,101407.66
2023-03-06T12:55:07.369Z,101414.91
2023-03-06T12:57:38.220Z,101416.97
2023-03-06T13:00:12.964Z,101421.88
2023-03-06T13:03:05.812Z,101419.34
2023-03-06T13:06:22.833Z,101422.72
2023-03-06T13:09:09.102Z,101428.47
2023-03-06T13:11:51.378Z,101431.19
2023-03-06T13:14:48.762Z,101428.84
2023-03-06T13:17:26.308Z,101424.44
2023-03-06T13:20:35.562Z,101433.88
2023-03-06T13:23:30.793Z,101427.50
2023-03-06T13:26:06.224Z,101428.88
2023-03-06T13:28:48.115Z,101423.28
2023-03-06T13:31:50.465Z,101434.25
2023-03-06T13:34:33.288Z,101431.56
2023-03-06T13:37:23.984Z,101441.16
2023-03-06T13:39:57.032Z,101442.53
2023-03-06T13:42:37.355Z,101445.94
2023-03-06T13:45:26.464Z,101440.38
2023-03-06T13:48:22.643Z,101442.88
2023-03-06T13:50:52.085Z,101445.41
2023-03-06T13:54:17.216Z,101448.44
2023-03-06T13:57:25.501Z,101454.00
2023-03-06T14:00:20.039Z,101449.44
2023-03-06T14:03:21.056Z,101456.22
2023-03-06T14:05:53.276Z,101453.50
2023-03-06T14:08:34.108Z,101454.53
2023-03-06T14:11:21.754Z,101451.50
2023-03-06T14:13:55.518Z,101458.78
2023-03-06T14:16:49.444Z,101461.66
2023-03-06T14:19:21.037Z,101463.69
2023-03-06T14:22:02.208Z,101458.63
2023-03-06T14:24:39.664Z,101454.94
2023-03-06T14:27:22.046Z,101455.94
2023-03-06T14:29:55.582Z,101460.81
2023-03-06T14:32:28.860Z,101460.66
2023-03-06T14:35:01.222Z,101462.69
2023-03-06T14:37:33.090Z,101458.97
2023-03-06T14:40:04.725Z,101461.69
2023-03-06T14:42:35.468Z,101460.16
2023-03-06T14:45:20.118Z,101462.84
2023-03-06T14:47:52.713Z,101459.66
2023-03-06T14:50:31.995Z,101460.69
2023-03-06T14:53:06.841Z,101461.69
2023-03-06T14:55:38.611Z,101457.31
2023-03-06T14:58:17.445Z,101463.72
2023-03-06T15:00:51.540Z,101465.56
2023-03-06T15:03:33.798Z,101467.44
2023-03-06T15:06:04.838Z,101463.25
2023-03-06T15:08:37.802Z,101466.28
2023-03-06T15:11:09.278Z,101470.81
2023-03-06T15:13:40.268Z,101473.53
2023-03-06T15:16:20.569Z,101462.91
2023-03-06T15:19:05.371Z,101462.25
2023-03-06T15:21:39.772Z,101469.47
2023-03-06T15:24:34.017Z,101463.41
2023-03-06T15:27:06.853Z,101462.91
2023-03-06T15:29:40.976Z,101461.06
2023-03-06T15:32:31.202Z,101461.22
2023-03-06T15:35:38.218Z,101460.69
2023-03-06T15:38:30.467Z,101452.78
2023-03-06T15:41:02.175Z,101455.47
2023-03-06T15:43:39.226Z,101446.88
2023-03-06T15:46:09.749Z,101448.72
2023-03-06T15:48:40.096Z,101451.94
2023-03-06T15:51:10.609Z,101447.19
2023-03-06T15:53:41.169Z,101448.88
2023-03-06T15:56:13.043Z,101445.50
2023-03-06T15:58:46.700Z,101457.84
2023-03-06T16:01:18.957Z,101441.81
2023-03-06T16:03:52.344Z,101443.84
2023-03-06T16:06:28.557Z,101447.53
2023-03-06T16:08:59.146Z,101438.28
2023-03-06T16:11:41.943Z,101433.56
2023-03-06T16:14:22.022Z,101431.69
2023-03-06T16:16:55.157Z,101432.03
2023-03-06T16:19:27.808Z,101436.09
2023-03-06T16:21:59.872Z,101431.22
2023-03-06T16:24:31.713Z,101433.56
2023-03-06T16:27:03.705Z,101433.38
2023-03-06T16:29:34.523Z,101425.97
2023-03-06T16:32:05.668Z,101423.13
2023-03-06T16:34:36.387Z,101423.63
2023-03-06T16:37:13.535Z,101422.09
2023-03-06T16:39:44.463Z,101421.25
2023-03-06T16:42:19.665Z,101428.34
2023-03-06T16:44:50.791Z,101416.72
2023-03-06T16:47:21.507Z,101407.63
2023-03-06T16:49:56.938Z,101405.41
2023-03-06T16:52:27.226Z,101400.03
2023-03-06T16:54:57.692Z,101401.56
2023-03-06T16:57:32.415Z,101404.41
2023-03-06T17:00:02.845Z,101401.41
2023-03-06T17:02:33.875Z,101401.72
2023-03-06T17:05:04.430Z,101398.47
2023-03-06T17:07:35.944Z,101404.88
2023-03-06T17:10:10.283Z,101400.69
2023-03-06T17:12:40.937Z,101400.84
2023-03-06T17:15:12.284Z,101396.97
2023-03-06T17:17:42.956Z,101394.28
2023-03-06T17:20:14.542Z,101395.44
2023-03-06T17:22:45.138Z,101395.44
2023-03-06T17:25:15.891Z,101390.03
2023-03-06T17:27:46.486Z,101391.25
2023-03-06T17:30:18.022Z,101383.50
2023-03-06T17:32:48.741Z,101387.69
2023-03-06T17:35:21.446Z,101386.34
2023-03-06T17:37:55.203Z,101374.06
2023-03-06T17:40:25.484Z,101375.22
2023-03-06T17:42:56.005Z,101371.00
2023-03-06T17:45:26.439Z,101368.47
2023-03-06T17:47:57.846Z,101378.41
2023-03-06T17:50:28.301Z,101367.28
2023-03-06T17:52:58.867Z,101359.22
2023-03-06T17:55:30.852Z,101363.94
2023-03-06T17:58:01.318Z,101353.97
2023-03-06T18:00:31.637Z,101358.53
2023-03-06T18:03:03.277Z,101372.66
2023-03-06T18:05:33.654Z,101362.03
2023-03-06T18:08:04.874Z,101359.53
2023-03-06T18:10:36.025Z,101359.19
2023-03-06T18:13:06.978Z,101360.53
2023-03-06T18:15:41.483Z,101355.97
2023-03-06T18:18:11.755Z,101362.56
2023-03-06T18:20:43.919Z,101357.16
2023-03-06T18:23:15.298Z,101355.63
2023-03-06T18:25:45.683Z,101358.19
2023-03-06T18:28:18.612Z,101354.09
2023-03-06T18:30:49.507Z,101358.81
2023-03-06T18:33:20.460Z,101350.72
2023-03-06T18:35:50.795Z,101357.31
2023-03-06T18:38:21.945Z,101360.13
2023-03-06T18:40:52.620Z,101348.00
2023-03-06T18:43:26.960Z,101349.69
2023-03-06T18:45:59.947Z,101352.91
2023-03-06T18:48:33.757Z,101358.09
2023-03-06T18:51:09.295Z,101357.44
2023-03-06T18:53:41.019Z,101347.50
2023-03-06T18:56:22.888Z,101360.13
2023-03-06T18:58:53.944Z,101358.94
2023-03-06T19:01:25.397Z,101360.09
2023-03-06T19:03:56.090Z,101367.16
2023-03-06T19:06:27.947Z,101360.09
2023-03-06T19:09:03.180Z,101360.41
2023-03-06T19:11:44.744Z,101356.72
2023-03-06T19:14:16.065Z,101362.75
2023-03-06T19:16:46.461Z,101357.38
2023-03-06T19:19:17.351Z,101362.06
2023-03-06T19:21:47.974Z,101359.38
2023-03-06T19:24:18.373Z,101356.69
2023-03-06T19:26:49.265Z,101363.94
2023-03-06T19:29:19.873Z,101362.56
2023-03-06T19:31:51.763Z,101362.72
2023-03-06T19:34:22.309Z,101364.72
2023-03-06T19:36:53.245Z,101367.41
2023-03-06T19:39:25.396Z,101360.66
2023-03-06T19:41:59.790Z,101363.53
2023-03-06T19:44:30.537Z,101366.06
2023-03-06T19:47:02.176Z,101367.69
2023-03-06T19:49:36.224Z,101362.31
2023-03-06T19:52:09.560Z,101365.34
2023-03-06T19:54:40.310Z,101369.03
2023-03-06T19:57:11.367Z,101363.66
2023-03-06T19:59:41.943Z,101365.81
2023-03-06T20:02:12.709Z,101362.25
2023-03-06T20:04:43.392Z,101363.44
2023-03-06T20:07:14.488Z,101362.56
2023-03-06T20:09:44.970Z,101358.88
2023-03-06T20:12:18.291Z,101365.44
2023-03-06T20:14:49.056Z,101370.81
2023-03-06T20:17:19.911Z,101366.63
2023-03-06T20:19:50.967Z,101360.69
2023-03-06T20:22:52.868Z,101362.91
2023-03-06T20:25:23.443Z,101364.25
2023-03-06T20:27:54.072Z,101375.47
2023-03-06T20:30:37.479Z,101357.63
2023-03-06T20:33:11.461Z,101363.03
2023-03-06T20:35:43.639Z,101371.59
2023-03-06T20:38:14.232Z,101371.91
2023-03-06T20:40:45.230Z,101371.91
2023-03-06T20:43:16.273Z,101374.59
2023-03-06T20:45:59.365Z,101378.28
2023-03-06T20:48:30.662Z,101376.91
2023-03-06T20:51:06.848Z,101377.91
2023-03-06T20:53:37.318Z,101381.59
2023-03-06T20:56:08.398Z,101387.97
2023-03-06T20:58:38.935Z,101394.34
2023-03-06T21:01:09.618Z,101395.34
2023-03-06T21:03:40.128Z,101399.19
2023-03-06T21:06:10.704Z,101397.50
2023-03-06T21:08:41.043Z,101402.38
2023-03-06T21:11:11.743Z,101408.06
2023-03-06T21:13:42.455Z,101401.00
2023-03-06T21:16:17.901Z,101399.31
2023-03-06T21:18:48.816Z,101402.31
2023-03-06T21:21:22.120Z,101406.69
2023-03-06T21:23:52.822Z,101409.50
2023-03-06T21:26:26.299Z,101414.88
2023-03-06T21:28:59.903Z,101415.88
2023-03-06T21:31:31.815Z,101425.13
2023-03-06T21:34:04.849Z,101421.72
2023-03-06T21:36:35.946Z,101421.03
2023-03-06T21:39:07.139Z,101428.41
2023-03-06T21:41:39.038Z,101436.78
2023-03-06T21:44:09.730Z,101438.78
2023-03-06T21:46:42.441Z,101432.69
2023-03-06T21:49:14.485Z,101445.28
2023-03-06T21:51:45.011Z,101447.28
2023-03-06T21:54:15.448Z,101448.13
2023-03-06T21:56:45.887Z,101453.50
2023-03-06T21:59:16.577Z,101455.81
2023-03-06T22:01:48.562Z,101457.81
2023-03-06T22:04:19.398Z,101460.38
2023-03-06T22:06:49.724Z,101458.81
2023-03-06T22:09:20.899Z,101466.03
2023-03-06T22:11:53.599Z,101468.88
2023-03-06T22:14:24.157Z,101474.25
2023-03-06T22:16:54.490Z,101482.59
2023-03-06T22:19:25.274Z,101486.28
2023-03-06T22:21:55.891Z,101492.66
2023-03-06T22:24:26.538Z,101501.72
2023-03-06T22:26:57.098Z,101499.63
2023-03-06T22:29:27.858Z,101499.50
2023-03-06T22:31:58.721Z,101504.31
2023-03-06T22:34:37.882Z,101506.00
2023-03-06T22:37:08.748Z,101508.00
2023-03-06T22:39:39.602Z,101511.69
2023-03-06T22:42:12.871Z,101513.38
2023-03-06T22:44:43.808Z,101518.75
2023-03-06T22:47:14.158Z,101517.06
2023-03-06T22:49:48.547Z,101511.69
2023-03-06T22:52:20.532Z,101515.38
2023-03-06T22:54:51.386Z,101524.41
2023-03-06T22:57:21.841Z,101518.03
2023-03-06T22:59:52.396Z,101522.59
2023-03-06T23:02:23.908Z,101527.81
2023-03-06T23:04:55.159Z,101526.09
2023-03-06T23:07:26.037Z,101533.47
2023-03-06T23:10:04.122Z,101535.16
2023-03-06T23:12:53.589Z,101539.53
2023-03-06T23:15:42.793Z,101537.84
2023-03-06T23:18:32.336Z,101536.84
2023-03-06T23:21:23.736Z,101536.84
2023-03-06T23:24:12.937Z,101546.47
2023-03-06T23:26:43.329Z,101554.38
2023-03-06T23:29:13.752Z,101549.69
2023-03-06T23:31:44.788Z,101548.69
2023-03-06T23:34:15.108Z,101550.66
2023-03-06T23:36:45.493Z,101537.75
2023-03-06T23:39:15.925Z,101545.19
2023-03-06T23:41:46.361Z,101550.09
2023-03-06T23:44:19.287Z,101542.59
2023-03-06T23:46:50.444Z,101544.00
2023-03-06T23:49:22.050Z,101549.63
2023-03-06T23:51:52.928Z,101553.84
2023-03-06T23:54:23.277Z,101550.88
2023-03-06T23:56:54.193Z,101547.88
2023-03-06T23:59:34.238Z,101553.47
